createdAt,value
2023-04-15T00:02:19.727Z,3.40
2023-04-15T00:06:31.804Z,3.07
2023-04-15T00:10:44.341Z,3.20
2023-04-15T00:14:57.106Z,3.00
2023-04-15T00:19:08.695Z,3.03
2023-04-15T00:23:20.288Z,3.00
2023-04-15T00:27:31.971Z,3.30
2023-04-15T00:31:44.734Z,3.17
2023-04-15T00:35:57.160Z,2.67
2023-04-15T00:40:12.918Z,2.95
2023-04-15T00:44:24.614Z,3.03
2023-04-15T00:48:36.965Z,2.67
2023-04-15T00:52:49.080Z,3.00
2023-04-15T00:57:00.873Z,3.10
2023-04-15T01:01:12.552Z,2.63
2023-04-15T01:05:25.119Z,2.67
2023-04-15T01:09:36.808Z,3.20
2023-04-15T01:13:48.494Z,3.17
2023-04-15T01:18:00.373Z,3.40
2023-04-15T01:22:12.486Z,2.97
2023-04-15T01:26:24.633Z,3.00
2023-04-15T01:30:36.807Z,3.30
2023-04-15T01:34:48.504Z,3.37
2023-04-15T01:39:00.345Z,3.10
2023-04-15T01:43:12.712Z,3.47
2023-04-15T01:47:24.308Z,3.00
2023-04-15T01:51:35.883Z,3.17
2023-04-15T01:55:47.521Z,3.87
2023-04-15T01:59:59.795Z,3.50
2023-04-15T02:04:20.489Z,3.47
2023-04-15T02:08:32.022Z,3.40
2023-04-15T02:12:43.981Z,3.20
2023-04-15T02:16:56.582Z,3.60
2023-04-15T02:21:09.026Z,3.30
2023-04-15T02:25:23.289Z,3.93
2023-04-15T02:29:34.889Z,3.60
2023-04-15T02:33:46.650Z,3.07
2023-04-15T02:37:58.282Z,3.57
2023-04-15T02:42:13.358Z,3.03
2023-04-15T02:46:25.198Z,3.30
2023-04-15T02:50:39.816Z,3.47
2023-04-15T02:54:53.285Z,3.50
2023-04-15T02:59:04.895Z,3.77
2023-04-15T03:03:16.806Z,3.30
2023-04-15T03:07:28.488Z,3.73
2023-04-15T03:11:42.050Z,3.70
2023-04-15T03:15:55.634Z,3.60
2023-04-15T03:20:08.755Z,3.70
2023-04-15T03:24:21.124Z,3.87
2023-04-15T03:28:32.937Z,3.73
2023-04-15T03:32:45.352Z,3.57
2023-04-15T03:36:58.100Z,3.87
2023-04-15T03:41:09.702Z,3.90
2023-04-15T03:45:21.274Z,4.53
2023-04-15T03:49:32.878Z,4.87
2023-04-15T03:53:44.458Z,4.10
2023-04-15T03:57:56.048Z,4.47
2023-04-15T04:02:07.765Z,3.93
2023-04-15T04:06:19.960Z,4.30
2023-04-15T04:10:32.032Z,4.03
2023-04-15T04:14:43.755Z,4.10
2023-04-15T04:18:55.480Z,4.33
2023-04-15T04:23:07.106Z,4.27
2023-04-15T04:27:18.749Z,4.23
2023-04-15T04:31:30.440Z,4.73
2023-04-15T04:35:41.994Z,5.07
2023-04-15T04:39:53.834Z,4.40
2023-04-15T04:44:05.389Z,4.97
2023-04-15T04:48:17.392Z,5.17
2023-04-15T04:52:29.011Z,4.90
2023-04-15T04:56:41.071Z,15.70
2023-04-15T05:00:55.775Z,7.30
2023-04-15T05:05:07.944Z,5.17
2023-04-15T05:09:19.535Z,5.47
2023-04-15T05:13:31.636Z,5.67
2023-04-15T05:17:43.362Z,5.47
2023-04-15T05:21:54.920Z,5.77
2023-04-15T05:26:06.570Z,5.73
2023-04-15T05:30:18.260Z,5.00
2023-04-15T05:34:29.877Z,4.77
2023-04-15T05:38:42.084Z,4.93
2023-04-15T05:42:53.679Z,5.23
2023-04-15T05:47:05.912Z,5.33
2023-04-15T05:51:17.561Z,4.97
2023-04-15T05:55:29.104Z,5.50
2023-04-15T05:59:42.186Z,4.63
2023-04-15T06:03:53.960Z,5.35
2023-04-15T06:08:06.049Z,4.90
2023-04-15T06:12:17.709Z,5.18
2023-04-15T06:16:29.471Z,5.10
2023-04-15T06:20:41.861Z,4.93
2023-04-15T06:24:54.045Z,5.10
2023-04-15T06:29:05.828Z,5.13
2023-04-15T06:33:17.657Z,5.45
2023-04-15T06:37:29.401Z,4.47
2023-04-15T06:41:41.170Z,5.00
2023-04-15T06:45:52.761Z,4.72
2023-04-15T06:50:04.790Z,4.55
2023-04-15T06:54:16.446Z,5.18
2023-04-15T06:58:28.129Z,5.35
2023-04-15T07:02:41.096Z,5.28
2023-04-15T07:06:52.763Z,4.72
2023-04-15T07:11:04.424Z,4.82
2023-04-15T07:15:16.560Z,4.88
2023-04-15T07:19:28.471Z,4.20
2023-04-15T07:23:40.395Z,4.18
2023-04-15T07:27:53.144Z,4.35
2023-04-15T07:32:05.111Z,4.80
2023-04-15T07:36:16.706Z,4.90
2023-04-15T07:40:28.406Z,5.25
2023-04-15T07:44:40.111Z,4.97
2023-04-15T07:48:52.305Z,5.57
2023-04-15T07:53:04.190Z,4.78
2023-04-15T07:57:17.069Z,5.43
2023-04-15T08:01:28.704Z,5.15
2023-04-15T08:05:40.449Z,4.68
2023-04-15T08:09:52.352Z,4.45
2023-04-15T08:14:04.086Z,4.65
2023-04-15T08:18:17.800Z,4.50
2023-04-15T08:22:29.775Z,4.25
2023-04-15T08:27:01.917Z,4.28
2023-04-15T08:31:16.335Z,3.40
2023-04-15T08:35:28.046Z,2.83
2023-04-15T08:39:39.851Z,2.83
2023-04-15T08:44:01.972Z,2.40
2023-04-15T08:48:18.395Z,2.63
2023-04-15T08:52:31.574Z,2.22
2023-04-15T08:56:43.331Z,2.13
2023-04-15T09:00:55.188Z,2.42
2023-04-15T09:05:07.957Z,2.35
2023-04-15T09:09:19.640Z,2.10
2023-04-15T09:13:31.664Z,2.45
2023-04-15T09:17:44.912Z,2.60
2023-04-15T09:21:59.249Z,2.35
2023-04-15T09:26:11.427Z,2.20
2023-04-15T09:30:23.636Z,3.20
2023-04-15T09:34:37.134Z,2.42
2023-04-15T09:38:58.524Z,2.53
2023-04-15T09:43:13.098Z,2.25
2023-04-15T09:47:32.291Z,2.47
2023-04-15T09:51:51.354Z,2.28
2023-04-15T09:56:13.507Z,2.53
2023-04-15T10:00:25.610Z,2.40
2023-04-15T10:04:41.553Z,2.60
2023-04-15T10:08:54.406Z,2.28
2023-04-15T10:13:09.527Z,2.25
2023-04-15T10:17:23.556Z,2.00
2023-04-15T10:21:37.687Z,1.90
2023-04-15T10:25:49.642Z,2.00
2023-04-15T10:30:03.723Z,1.83
2023-04-15T10:34:16.115Z,2.20
2023-04-15T10:38:35.133Z,2.13
2023-04-15T10:42:47.288Z,2.10
2023-04-15T10:46:59.009Z,1.88
2023-04-15T10:51:14.017Z,1.92
2023-04-15T10:55:27.564Z,1.92
2023-04-15T10:59:59.203Z,1.83
2023-04-15T11:04:11.525Z,1.83
2023-04-15T11:09:02.395Z,2.08
2023-04-15T11:13:21.947Z,1.75
2023-04-15T11:17:33.709Z,1.70
2023-04-15T11:21:45.521Z,1.60
2023-04-15T11:25:58.599Z,1.60
2023-04-15T11:30:24.967Z,1.65
2023-04-15T11:34:36.919Z,1.90
2023-04-15T11:38:51.684Z,1.58
2023-04-15T11:43:11.219Z,1.70
2023-04-15T11:47:25.888Z,1.30
2023-04-15T11:51:37.603Z,1.30
2023-04-15T11:55:51.114Z,1.10
2023-04-15T12:00:05.233Z,1.30
2023-04-15T12:04:24.233Z,1.10
2023-04-15T12:08:49.914Z,1.00
2023-04-15T12:13:01.604Z,1.25
2023-04-15T12:17:13.297Z,1.20
2023-04-15T12:21:27.620Z,1.38
2023-04-15T12:25:39.370Z,1.30
2023-04-15T12:29:51.083Z,0.90
2023-04-15T12:34:04.303Z,1.30
2023-04-15T12:38:16.344Z,1.30
2023-04-15T12:42:28.248Z,1.70
2023-04-15T12:46:40.143Z,1.73
2023-04-15T12:50:51.853Z,2.08
2023-04-15T12:55:03.684Z,1.42
2023-04-15T12:59:17.021Z,1.48
2023-04-15T13:03:28.854Z,1.30
2023-04-15T13:07:40.941Z,1.20
2023-04-15T13:11:52.943Z,1.10
2023-04-15T13:16:05.003Z,0.80
2023-04-15T13:20:17.445Z,1.02
2023-04-15T13:24:29.127Z,1.05
2023-04-15T13:28:41.063Z,1.08
2023-04-15T13:32:54.016Z,0.90
2023-04-15T13:37:09.478Z,0.95
2023-04-15T13:41:21.373Z,0.85
2023-04-15T13:45:33.161Z,0.90
2023-04-15T13:49:44.953Z,1.20
2023-04-15T13:53:58.119Z,1.00
2023-04-15T13:58:11.048Z,1.10
2023-04-15T14:02:23.499Z,0.93
2023-04-15T14:06:35.646Z,0.70
2023-04-15T14:10:49.428Z,0.90
2023-04-15T14:15:01.157Z,0.80
2023-04-15T14:19:12.882Z,0.90
2023-04-15T14:23:24.566Z,0.70
2023-04-15T14:27:36.248Z,1.20
2023-04-15T14:32:11.018Z,0.90
2023-04-15T14:36:21.400Z,0.90
2023-04-15T14:40:33.872Z,0.93
2023-04-15T14:44:45.792Z,1.40
2023-04-15T14:48:57.563Z,1.20
2023-04-15T14:53:09.241Z,1.10
2023-04-15T14:57:20.878Z,24.27
2023-04-15T15:01:33.371Z,11.60
2023-04-15T15:05:47.032Z,18.95
2023-04-15T15:09:58.753Z,6.75
2023-04-15T15:14:10.355Z,3.38
2023-04-15T15:18:22.081Z,1.50
2023-04-15T15:22:33.809Z,1.50
2023-04-15T15:26:45.516Z,1.42
2023-04-15T15:30:57.237Z,1.27
2023-04-15T15:35:09.700Z,1.50
2023-04-15T15:39:23.488Z,1.48
2023-04-15T15:43:35.235Z,1.42
2023-04-15T15:47:46.991Z,2.05
2023-04-15T15:51:58.836Z,1.45
2023-04-15T15:56:10.816Z,1.60
2023-04-15T16:00:23.221Z,1.67
2023-04-15T16:04:35.900Z,2.08
2023-04-15T16:08:47.580Z,1.35
2023-04-15T16:12:59.487Z,1.70
2023-04-15T16:17:11.187Z,2.97
2023-04-15T16:21:24.912Z,3.20
2023-04-15T16:25:36.678Z,3.35
2023-04-15T16:29:48.361Z,2.13
2023-04-15T16:34:00.053Z,2.05
2023-04-15T16:38:11.803Z,1.45
2023-04-15T16:42:23.564Z,1.70
2023-04-15T16:46:35.360Z,1.50
2023-04-15T16:50:47.857Z,1.50
2023-04-15T16:54:59.528Z,1.50
2023-04-15T16:59:11.130Z,1.25
2023-04-15T17:03:25.618Z,1.88
2023-04-15T17:07:37.456Z,1.80
2023-04-15T17:11:49.190Z,1.42
2023-04-15T17:16:02.255Z,2.50
2023-04-15T17:20:14.348Z,1.77
2023-04-15T17:24:27.120Z,1.50
2023-04-15T17:28:38.778Z,2.17
2023-04-15T17:32:51.882Z,3.17
2023-04-15T17:37:03.768Z,1.45
2023-04-15T17:41:15.784Z,1.27
2023-04-15T17:45:27.427Z,2.40
2023-04-15T17:49:39.154Z,1.90
2023-04-15T17:53:50.936Z,1.58
2023-04-15T17:58:03.264Z,1.70
2023-04-15T18:02:15.537Z,1.55
2023-04-15T18:06:27.368Z,1.73
2023-04-15T18:10:39.644Z,1.80
2023-04-15T18:14:51.425Z,1.60
2023-04-15T18:19:03.213Z,1.38
2023-04-15T18:23:14.851Z,1.30
2023-04-15T18:27:27.655Z,1.35
2023-04-15T18:31:39.261Z,1.10
2023-04-15T18:35:50.936Z,2.30
2023-04-15T18:40:02.634Z,1.67
2023-04-15T18:44:14.283Z,1.67
2023-04-15T18:48:30.708Z,1.92
2023-04-15T18:52:42.420Z,1.63
2023-04-15T18:56:54.161Z,1.33
2023-04-15T19:01:05.891Z,1.50
2023-04-15T19:05:17.614Z,1.95
2023-04-15T19:09:29.492Z,2.90
2023-04-15T19:13:41.095Z,1.83
2023-04-15T19:17:52.827Z,1.55
2023-04-15T19:22:04.889Z,1.90
2023-04-15T19:26:16.504Z,1.50
2023-04-15T19:30:28.705Z,1.98
2023-04-15T19:34:41.426Z,1.50
2023-04-15T19:38:53.099Z,1.80
2023-04-15T19:43:04.753Z,1.48
2023-04-15T19:47:16.703Z,1.80
2023-04-15T19:51:28.545Z,1.38
2023-04-15T19:55:40.186Z,2.47
2023-04-15T19:59:51.833Z,1.20
2023-04-15T20:04:04.051Z,2.17
2023-04-15T20:08:15.873Z,1.88
2023-04-15T20:12:50.811Z,1.42
2023-04-15T20:16:59.520Z,1.80
2023-04-15T20:21:11.322Z,1.65
2023-04-15T20:25:23.012Z,1.80
2023-04-15T20:29:34.696Z,1.40
2023-04-15T20:33:46.351Z,1.20
2023-04-15T20:37:58.006Z,1.43
2023-04-15T20:42:10.440Z,1.52
2023-04-15T20:46:22.730Z,1.80
2023-04-15T20:50:35.145Z,1.88
2023-04-15T20:54:47.215Z,1.70
2023-04-15T20:58:59.782Z,1.48
2023-04-15T21:03:12.162Z,1.10
2023-04-15T21:07:24.219Z,1.90
2023-04-15T21:15:53.423Z,1.33
2023-04-15T21:20:05.763Z,1.58
2023-04-15T21:24:17.394Z,1.47
2023-04-15T21:28:32.403Z,1.70
2023-04-15T21:32:43.980Z,2.17
2023-04-15T21:36:55.731Z,1.60
2023-04-15T21:41:09.687Z,1.50
2023-04-15T21:45:21.736Z,1.60
2023-04-15T21:49:33.442Z,2.03
2023-04-15T21:53:45.014Z,1.67
2023-04-15T21:57:56.555Z,1.85
2023-04-15T22:02:08.143Z,1.90
2023-04-15T22:06:19.918Z,1.90
2023-04-15T22:10:31.896Z,1.80
2023-04-15T22:14:43.514Z,1.80
2023-04-15T22:18:55.699Z,1.97
2023-04-15T22:23:10.363Z,2.40
2023-04-15T22:27:22.041Z,2.30
2023-04-15T22:31:33.688Z,2.10
2023-04-15T22:35:45.382Z,2.90
2023-04-15T22:39:57.529Z,2.53
2023-04-15T22:44:09.162Z,3.03
2023-04-15T22:48:20.821Z,2.57
2023-04-15T22:52:32.782Z,2.83
2023-04-15T22:56:44.458Z,2.47
2023-04-15T23:00:56.099Z,2.47
2023-04-15T23:05:12.606Z,2.70
2023-04-15T23:09:25.169Z,3.00
2023-04-15T23:13:36.847Z,3.17
2023-04-15T23:17:48.459Z,3.47
2023-04-15T23:22:00.370Z,2.67
2023-04-15T23:26:12.015Z,3.17
2023-04-15T23:30:23.648Z,3.40
2023-04-15T23:34:35.414Z,3.67
2023-04-15T23:38:47.902Z,3.10
2023-04-15T23:42:59.579Z,3.63
2023-04-15T23:47:11.203Z,3.43
2023-04-15T23:51:22.814Z,3.63
2023-04-15T23:55:34.943Z,4.23
2023-04-15T23:59:46.626Z,4.53
